Time;durP1;ratioP1;P1;durP2;ratioP2;P2;SDS_P1;SDS_P2;PMS_P1;PMS_P2;Temp;Humidity;BMP_temperature;BMP_pressure;BME280_temperature;BME280_humidity;BME280_pressure;Samples;Min_cycle;Max_cycle;Signal;HPM_P1;HPM_P2
2023/02/05 00:00:20;;;;;;;1.10;0.50;;;;;;;;;;109221;1250;62357;-45
2023/02/05 00:02:48;;;;;;;1.50;0.60;;;;;;;;;;107604;1254;60424;-47
2023/02/05 00:05:15;;;;;;;0.80;0.50;;;;;;;;;;105424;1262;60896;-47
2023/02/05 00:07:44;;;;;;;1.60;0.50;;;;;;;;;;106482;1256;60535;-47
2023/02/05 00:10:12;;;;;;;0.70;0.50;;;;;;;;;;105490;1256;60329;-45
2023/02/05 00:12:40;;;;;;;0.70;0.50;;;;;;;;;;105320;1254;62188;-46
2023/02/05 00:15:09;;;;;;;3.80;0.60;;;;;;;;;;105457;1253;60446;-47
2023/02/05 00:17:36;;;;;;;1.50;0.50;;;;;;;;;;105404;1257;60795;-45
2023/02/05 00:20:05;;;;;;;2.00;0.50;;;;;;;;;;105413;1254;60812;-46
2023/02/05 00:22:33;;;;;;;1.20;0.50;;;;;;;;;;105726;1250;60572;-45
2023/02/05 00:25:00;;;;;;;1.00;0.50;;;;;;;;;;105447;1255;60886;-45
2023/02/05 00:27:28;;;;;;;0.70;0.50;;;;;;;;;;105218;1256;60513;-46
2023/02/05 00:29:57;;;;;;;1.30;0.40;;;;;;;;;;105582;1256;61957;-45
2023/02/05 00:32:25;;;;;;;0.50;0.40;;;;;;;;;;105746;1258;61498;-45
2023/02/05 00:34:53;;;;;;;2.50;0.50;;;;;;;;;;107680;1251;60324;-45
2023/02/05 00:37:21;;;;;;;1.00;0.50;;;;;;;;;;105479;1256;62298;-43
2023/02/05 00:39:49;;;;;;;1.20;0.50;;;;;;;;;;105543;1256;60427;-44
2023/02/05 00:42:17;;;;;;;1.30;0.40;;;;;;;;;;105477;1254;60752;-45
2023/02/05 00:44:45;;;;;;;0.80;0.40;;;;;;;;;;106115;1255;60524;-44
2023/02/05 00:47:12;;;;;;;0.90;0.50;;;;;;;;;;105715;1255;60525;-47
2023/02/05 00:49:41;;;;;;;1.40;0.50;;;;;;;;;;105738;1260;61839;-47
2023/02/05 00:52:09;;;;;;;0.60;0.30;;;;;;;;;;105247;1250;60423;-45
2023/02/05 00:54:37;;;;;;;0.80;0.50;;;;;;;;;;105527;1254;60498;-45
2023/02/05 00:57:05;;;;;;;1.90;0.50;;;;;;;;;;109402;1251;58714;-46
2023/02/05 00:59:33;;;;;;;2.50;0.40;;;;;;;;;;106620;1251;60462;-46
2023/02/05 01:02:01;;;;;;;0.80;0.40;;;;;;;;;;105025;1257;62132;-46
2023/02/05 01:04:29;;;;;;;1.60;0.50;;;;;;;;;;105249;1257;60409;-48
2023/02/05 01:06:57;;;;;;;1.60;0.60;;;;;;;;;;105870;1254;60711;-45
2023/02/05 01:09:25;;;;;;;0.80;0.50;;;;;;;;;;105154;1255;60453;-46
2023/02/05 01:11:53;;;;;;;1.20;0.40;;;;;;;;;;105610;1256;60588;-43
2023/02/05 01:14:21;;;;;;;1.20;0.30;;;;;;;;;;105574;1257;62190;-47
2023/02/05 01:16:50;;;;;;;1.00;0.40;;;;;;;;;;109248;1251;59030;-46
2023/02/05 01:19:17;;;;;;;0.60;0.30;;;;;;;;;;107560;1256;59718;-45
2023/02/05 01:21:45;;;;;;;0.60;0.30;;;;;;;;;;105492;1255;60494;-47
2023/02/05 01:24:13;;;;;;;0.60;0.40;;;;;;;;;;105444;1251;60337;-46
2023/02/05 01:26:42;;;;;;;1.20;0.50;;;;;;;;;;105891;1251;61860;-45
2023/02/05 01:29:09;;;;;;;0.80;0.40;;;;;;;;;;105297;1261;60437;-48
2023/02/05 01:31:37;;;;;;;1.00;0.40;;;;;;;;;;105278;1257;60532;-47
2023/02/05 01:34:06;;;;;;;0.70;0.50;;;;;;;;;;105365;1256;60517;-44
2023/02/05 01:36:34;;;;;;;0.80;0.40;;;;;;;;;;105423;1257;60415;-46
2023/02/05 01:39:02;;;;;;;0.70;0.50;;;;;;;;;;105218;1256;62916;-44
2023/02/05 01:41:31;;;;;;;0.60;0.30;;;;;;;;;;105504;1258;60412;-47
2023/02/05 01:44:09;;;;;;;0.80;0.40;;;;;;;;;;105645;1251;60999;-46
2023/02/05 01:46:41;;;;;;;1.00;0.40;;;;;;;;;;105188;1256;60456;-46
2023/02/05 01:49:14;;;;;;;0.80;0.40;;;;;;;;;;105234;1256;60910;-48
2023/02/05 01:51:42;;;;;;;0.50;0.40;;;;;;;;;;109338;1255;62153;-45
2023/02/05 01:54:10;;;;;;;1.10;0.30;;;;;;;;;;106233;1251;195810;-46
2023/02/05 01:59:25;;;;;;;3.80;0.40;;;;;;;;;;101933;1294;600969;-43
2023/02/05 02:01:52;;;;;;;0.80;0.40;;;;;;;;;;108153;1264;58866;-46
2023/02/05 02:04:37;;;;;;;0.90;0.40;;;;;;;;;;104460;1270;61613;-47
2023/02/05 02:07:05;;;;;;;1.20;0.40;;;;;;;;;;104506;1265;60272;-47
2023/02/05 02:09:34;;;;;;;0.60;0.30;;;;;;;;;;104517;1277;59033;-46
2023/02/05 02:12:06;;;;;;;0.50;0.30;;;;;;;;;;104122;1267;166325;-48
2023/02/05 02:14:34;;;;;;;0.80;0.40;;;;;;;;;;104481;1266;59026;-45
2023/02/05 02:17:02;;;;;;;0.90;0.40;;;;;;;;;;105214;1264;59154;-47
2023/02/05 02:19:33;;;;;;;1.60;0.50;;;;;;;;;;104607;1257;60262;-47
2023/02/05 02:22:11;;;;;;;0.70;0.30;;;;;;;;;;107253;1257;58946;-48
2023/02/05 02:25:05;;;;;;;0.40;0.30;;;;;;;;;;105621;1257;59829;-47
2023/02/05 02:27:34;;;;;;;;;;;;;;;;;;104866;1263;59776;-48
2023/02/05 02:30:04;;;;;;;1.40;0.40;;;;;;;;;;108807;1260;57302;-49
2023/02/05 02:32:37;;;;;;;0.70;0.30;;;;;;;;;;106303;1261;61411;-48
2023/02/05 02:35:05;;;;;;;1.40;0.30;;;;;;;;;;105782;1267;59577;-49
2023/02/05 02:37:39;;;;;;;2.10;0.40;;;;;;;;;;105019;1263;60468;-48
2023/02/05 02:40:09;;;;;;;0.30;0.20;;;;;;;;;;104821;1263;60043;-46
2023/02/05 02:42:42;;;;;;;0.50;0.30;;;;;;;;;;104803;1262;59727;-47
2023/02/05 02:45:10;;;;;;;0.40;0.30;;;;;;;;;;104904;1258;61896;-46
2023/02/05 02:47:49;;;;;;;1.00;0.40;;;;;;;;;;105271;1261;59644;-47
2023/02/05 02:50:17;;;;;;;0.60;0.30;;;;;;;;;;105416;1257;60293;-47
2023/02/05 02:52:46;;;;;;;0.70;0.40;;;;;;;;;;104828;1264;59736;-44
2023/02/05 02:55:14;;;;;;;0.80;0.40;;;;;;;;;;104794;1260;59633;-47
2023/02/05 02:57:44;;;;;;;0.70;0.40;;;;;;;;;;104469;1264;61484;-47
2023/02/05 03:00:12;;;;;;;0.50;0.40;;;;;;;;;;104547;1260;60496;-47
2023/02/05 03:02:40;;;;;;;2.80;0.50;;;;;;;;;;105064;1263;60891;-45
2023/02/05 03:05:09;;;;;;;1.10;0.50;;;;;;;;;;104735;1261;59729;-46
2023/02/05 03:07:40;;;;;;;0.60;0.40;;;;;;;;;;104346;1261;59737;-48
2023/02/05 03:10:26;;;;;;;0.70;0.40;;;;;;;;;;106991;1264;60021;-48
2023/02/05 03:12:57;;;;;;;0.70;0.30;;;;;;;;;;104702;1264;59739;-46
2023/02/05 03:15:26;;;;;;;0.70;0.40;;;;;;;;;;105201;1261;60454;-47
2023/02/05 03:17:54;;;;;;;0.70;0.40;;;;;;;;;;105411;1261;59632;-48
2023/02/05 03:20:26;;;;;;;0.80;0.50;;;;;;;;;;104582;1261;59855;-47
2023/02/05 03:22:55;;;;;;;0.80;0.40;;;;;;;;;;105791;1257;61060;-46
2023/02/05 03:25:24;;;;;;;0.70;0.40;;;;;;;;;;105167;1260;60317;-45
2023/02/05 03:27:52;;;;;;;0.40;0.30;;;;;;;;;;105570;1258;59762;-46
2023/02/05 03:30:22;;;;;;;0.80;0.40;;;;;;;;;;105255;1257;59505;-47
2023/02/05 03:32:54;;;;;;;2.70;0.40;;;;;;;;;;105182;1260;59607;-48
2023/02/05 03:35:43;;;;;;;0.60;0.40;;;;;;;;;;105744;1258;61336;-48
2023/02/05 03:38:25;;;;;;;0.60;0.40;;;;;;;;;;104814;1257;59789;-44
2023/02/05 03:40:55;;;;;;;1.30;0.50;;;;;;;;;;105801;1258;60772;-47
2023/02/05 03:43:29;;;;;;;1.10;0.50;;;;;;;;;;104953;1258;59836;-45
2023/02/05 03:46:09;;;;;;;0.70;0.40;;;;;;;;;;105501;1258;59493;-48
2023/02/05 03:48:50;;;;;;;1.90;0.50;;;;;;;;;;104984;1256;61371;-45
2023/02/05 03:51:22;;;;;;;0.80;0.50;;;;;;;;;;105112;1255;59734;-47
2023/02/05 03:53:53;;;;;;;0.70;0.40;;;;;;;;;;105227;1251;59625;-47
2023/02/05 03:56:24;;;;;;;0.80;0.50;;;;;;;;;;105864;1254;60166;-46
2023/02/05 03:58:53;;;;;;;0.70;0.50;;;;;;;;;;106996;1251;59715;-46
2023/02/05 04:01:21;;;;;;;0.60;0.50;;;;;;;;;;105512;1251;60485;-48
2023/02/05 04:03:50;;;;;;;0.90;0.40;;;;;;;;;;105911;1255;59657;-47
2023/02/05 04:06:18;;;;;;;0.80;0.40;;;;;;;;;;105278;1257;59967;-48
2023/02/05 04:08:47;;;;;;;0.60;0.40;;;;;;;;;;105517;1257;59529;-47
2023/02/05 04:11:15;;;;;;;2.60;0.50;;;;;;;;;;105597;1257;59618;-49
2023/02/05 04:13:44;;;;;;;0.70;0.30;;;;;;;;;;105524;1251;61359;-45
2023/02/05 04:16:13;;;;;;;0.60;0.40;;;;;;;;;;105404;1256;60096;-47
2023/02/05 04:18:41;;;;;;;0.60;0.40;;;;;;;;;;105553;1254;59791;-46
2023/02/05 04:21:09;;;;;;;0.70;0.50;;;;;;;;;;105747;1257;59714;-47
2023/02/05 04:23:38;;;;;;;1.20;0.50;;;;;;;;;;105376;1251;59968;-48
2023/02/05 04:26:06;;;;;;;1.70;0.50;;;;;;;;;;105416;1254;61856;-45
2023/02/05 04:28:40;;;;;;;0.70;0.50;;;;;;;;;;105197;1257;59632;-47
2023/02/05 04:31:10;;;;;;;0.80;0.50;;;;;;;;;;105658;1255;60684;-46
2023/02/05 04:33:39;;;;;;;1.40;0.60;;;;;;;;;;109146;1254;58438;-48
2023/02/05 04:36:08;;;;;;;0.90;0.60;;;;;;;;;;105579;1251;59736;-46
2023/02/05 04:38:36;;;;;;;1.10;0.60;;;;;;;;;;105501;1256;61420;-48
2023/02/05 04:41:03;;;;;;;1.30;0.60;;;;;;;;;;105394;1257;59570;-48
2023/02/05 04:43:32;;;;;;;1.20;0.70;;;;;;;;;;105525;1257;60807;-45
2023/02/05 04:46:05;;;;;;;1.40;0.70;;;;;;;;;;105309;1254;59766;-48
2023/02/05 04:48:33;;;;;;;1.40;0.60;;;;;;;;;;105497;1251;60136;-47
2023/02/05 04:51:08;;;;;;;1.30;0.70;;;;;;;;;;106394;1251;61026;-48
2023/02/05 04:53:36;;;;;;;1.20;0.70;;;;;;;;;;105524;1256;59621;-49
2023/02/05 04:56:05;;;;;;;1.40;0.50;;;;;;;;;;105417;1251;61170;-49
2023/02/05 04:58:33;;;;;;;0.70;0.50;;;;;;;;;;106348;1251;59790;-47
2023/02/05 05:01:02;;;;;;;0.60;0.50;;;;;;;;;;105640;1251;59589;-47
2023/02/05 05:03:30;;;;;;;0.70;0.40;;;;;;;;;;105644;1254;61327;-46
2023/02/05 05:06:01;;;;;;;0.70;0.40;;;;;;;;;;105239;1256;60623;-47
2023/02/05 05:08:29;;;;;;;0.90;0.60;;;;;;;;;;105241;1256;59539;-48
2023/02/05 05:10:58;;;;;;;0.80;0.50;;;;;;;;;;106365;1251;59887;-47
2023/02/05 05:13:26;;;;;;;1.10;0.80;;;;;;;;;;105655;1251;59849;-45
2023/02/05 05:15:54;;;;;;;0.70;0.50;;;;;;;;;;105101;1254;61031;-44
2023/02/05 05:18:23;;;;;;;0.80;0.80;;;;;;;;;;105730;1256;61738;-48
2023/02/05 05:20:51;;;;;;;1.00;0.60;;;;;;;;;;105300;1254;60514;-47
2023/02/05 05:23:19;;;;;;;0.70;0.50;;;;;;;;;;105786;1250;59909;-47
2023/02/05 05:25:47;;;;;;;0.90;0.60;;;;;;;;;;106628;1251;59646;-48
2023/02/05 05:28:15;;;;;;;1.30;0.60;;;;;;;;;;105612;1250;61130;-47
2023/02/05 05:30:43;;;;;;;1.00;0.60;;;;;;;;;;106202;1251;59529;-48
2023/02/05 05:33:12;;;;;;;1.30;0.60;;;;;;;;;;107026;1251;60731;-48
2023/02/05 05:35:39;;;;;;;0.70;0.60;;;;;;;;;;106364;1251;59752;-49
2023/02/05 05:38:07;;;;;;;0.90;0.60;;;;;;;;;;105375;1251;59635;-48
2023/02/05 05:46:09;;;;;;;1.20;0.60;;;;;;;;;;105539;1251;60781;-47
2023/02/05 05:48:37;;;;;;;1.10;0.60;;;;;;;;;;105145;1257;59714;-47
2023/02/05 05:51:05;;;;;;;1.40;0.60;;;;;;;;;;105584;1256;59560;-48
2023/02/05 05:53:33;;;;;;;2.40;0.70;;;;;;;;;;105696;1251;61138;-46
2023/02/05 05:56:01;;;;;;;1.00;0.70;;;;;;;;;;105162;1254;59594;-46
2023/02/05 05:58:29;;;;;;;2.20;0.60;;;;;;;;;;105163;1251;60754;-44
2023/02/05 06:00:57;;;;;;;1.10;0.70;;;;;;;;;;105393;1257;59602;-47
2023/02/05 06:03:25;;;;;;;2.60;0.80;;;;;;;;;;105299;1256;59737;-48
2023/02/05 06:05:53;;;;;;;1.60;0.70;;;;;;;;;;108045;1251;61445;-47
2023/02/05 06:08:21;;;;;;;1.80;0.90;;;;;;;;;;105190;1254;59634;-47
2023/02/05 06:10:49;;;;;;;1.20;0.90;;;;;;;;;;104745;1251;60963;-45
2023/02/05 06:13:16;;;;;;;1.80;0.90;;;;;;;;;;104855;1254;59640;-46
2023/02/05 06:15:46;;;;;;;1.70;0.90;;;;;;;;;;105354;1251;60306;-45
2023/02/05 06:18:16;;;;;;;2.20;0.70;;;;;;;;;;105157;1257;62368;-47
2023/02/05 06:20:44;;;;;;;1.40;0.90;;;;;;;;;;105912;1256;60405;-47
2023/02/05 06:23:12;;;;;;;1.30;0.70;;;;;;;;;;105480;1251;60771;-48
2023/02/05 06:25:39;;;;;;;1.50;0.90;;;;;;;;;;105186;1253;60470;-47
2023/02/05 06:28:07;;;;;;;1.90;0.80;;;;;;;;;;105277;1251;60497;-47
2023/02/05 06:30:35;;;;;;;1.70;0.90;;;;;;;;;;105632;1256;62183;-47
2023/02/05 06:33:04;;;;;;;1.10;0.70;;;;;;;;;;105466;1257;60451;-46
2023/02/05 06:35:32;;;;;;;1.50;0.80;;;;;;;;;;105340;1251;61012;-47
2023/02/05 06:38:00;;;;;;;1.50;0.80;;;;;;;;;;105329;1256;60451;-48
2023/02/05 06:40:29;;;;;;;1.50;0.90;;;;;;;;;;105650;1251;60540;-45
2023/02/05 06:42:57;;;;;;;2.50;1.10;;;;;;;;;;105378;1251;62213;-47
2023/02/05 06:45:25;;;;;;;1.90;1.00;;;;;;;;;;105394;1254;60468;-47
2023/02/05 06:47:54;;;;;;;1.90;1.20;;;;;;;;;;105379;1251;60704;-47
2023/02/05 06:50:23;;;;;;;2.70;1.20;;;;;;;;;;105436;1256;59256;-49
2023/02/05 06:52:51;;;;;;;1.90;1.00;;;;;;;;;;105389;1251;60893;-46
2023/02/05 06:55:19;;;;;;;1.80;0.90;;;;;;;;;;105222;1251;62300;-45
2023/02/05 06:57:46;;;;;;;2.90;1.40;;;;;;;;;;105259;1254;60493;-44
2023/02/05 07:00:14;;;;;;;2.30;1.00;;;;;;;;;;105438;1256;60629;-45
2023/02/05 07:02:43;;;;;;;2.80;0.90;;;;;;;;;;105357;1251;60428;-46
2023/02/05 07:05:11;;;;;;;1.70;0.90;;;;;;;;;;105656;1254;60399;-48
2023/02/05 07:07:39;;;;;;;1.40;0.90;;;;;;;;;;106095;1253;62545;-45
2023/02/05 07:10:07;;;;;;;1.90;1.00;;;;;;;;;;105575;1255;60528;-44
2023/02/05 07:12:35;;;;;;;2.30;1.00;;;;;;;;;;106187;1254;60769;-45
2023/02/05 07:15:03;;;;;;;2.20;0.90;;;;;;;;;;105435;1254;60376;-44
2023/02/05 07:17:31;;;;;;;2.50;0.80;;;;;;;;;;105445;1251;60430;-45
2023/02/05 07:20:00;;;;;;;3.60;1.00;;;;;;;;;;105384;1254;62066;-44
2023/02/05 07:22:28;;;;;;;1.80;0.90;;;;;;;;;;105360;1251;60531;-44
2023/02/05 07:24:56;;;;;;;2.30;1.10;;;;;;;;;;105479;1256;60953;-46
2023/02/05 07:27:24;;;;;;;3.50;1.40;;;;;;;;;;105658;1256;60450;-44
2023/02/05 07:29:54;;;;;;;2.00;1.60;;;;;;;;;;105345;1251;60533;-43
2023/02/05 07:32:22;;;;;;;3.60;1.40;;;;;;;;;;105506;1251;62594;-41
2023/02/05 07:34:50;;;;;;;2.80;1.50;;;;;;;;;;105327;1251;60539;-45
2023/02/05 07:37:18;;;;;;;2.50;1.40;;;;;;;;;;105649;1256;60963;-46
2023/02/05 07:39:48;;;;;;;4.30;1.40;;;;;;;;;;105951;1255;60410;-46
2023/02/05 07:42:16;;;;;;;2.40;1.00;;;;;;;;;;105291;1251;60686;-44
2023/02/05 07:44:48;;;;;;;2.90;1.10;;;;;;;;;;105837;1251;62266;-45
2023/02/05 07:47:16;;;;;;;3.20;1.60;;;;;;;;;;105283;1253;61858;-46
2023/02/05 07:49:44;;;;;;;4.20;1.30;;;;;;;;;;105481;1251;60885;-47
2023/02/05 07:52:12;;;;;;;6.00;2.00;;;;;;;;;;105632;1256;60537;-44
2023/02/05 07:54:40;;;;;;;6.20;1.70;;;;;;;;;;105106;1251;60405;-45
2023/02/05 07:57:08;;;;;;;5.60;2.10;;;;;;;;;;105577;1251;62031;-44
2023/02/05 07:59:36;;;;;;;3.40;1.60;;;;;;;;;;105449;1256;60370;-46
2023/02/05 08:02:04;;;;;;;6.10;2.30;;;;;;;;;;105606;1256;60483;-47
2023/02/05 08:04:32;;;;;;;6.60;2.20;;;;;;;;;;105796;1256;60450;-48
2023/02/05 08:07:00;;;;;;;1.90;1.40;;;;;;;;;;105235;1253;60430;-44
2023/02/05 08:09:28;;;;;;;3.80;2.00;;;;;;;;;;105141;1257;60840;-48
2023/02/05 08:11:58;;;;;;;3.50;1.30;;;;;;;;;;105333;1256;61251;-47
2023/02/05 08:14:30;;;;;;;4.10;2.20;;;;;;;;;;105244;1251;61424;-46
2023/02/05 08:16:58;;;;;;;2.50;1.50;;;;;;;;;;105481;1257;60436;-48
2023/02/05 08:19:26;;;;;;;2.80;1.40;;;;;;;;;;105300;1251;60290;-47
2023/02/05 08:21:54;;;;;;;4.30;1.50;;;;;;;;;;105258;1256;62247;-48
2023/02/05 08:24:22;;;;;;;3.60;1.80;;;;;;;;;;106019;1255;60441;-43
2023/02/05 08:26:50;;;;;;;4.00;1.60;;;;;;;;;;105265;1251;60877;-46
2023/02/05 08:29:18;;;;;;;3.30;1.80;;;;;;;;;;105401;1251;59766;-45
2023/02/05 08:31:46;;;;;;;10.10;4.20;;;;;;;;;;105729;1251;60473;-45
2023/02/05 08:34:14;;;;;;;9.00;3.40;;;;;;;;;;106024;1253;62120;-44
2023/02/05 08:36:42;;;;;;;4.60;2.90;;;;;;;;;;105921;1254;60367;-45
2023/02/05 08:39:10;;;;;;;2.80;1.70;;;;;;;;;;105506;1251;60769;-44
2023/02/05 08:41:38;;;;;;;3.00;1.70;;;;;;;;;;105356;1256;60543;-46
2023/02/05 08:44:07;;;;;;;4.40;1.70;;;;;;;;;;105708;1251;60432;-47
2023/02/05 08:46:34;;;;;;;2.90;1.80;;;;;;;;;;105601;1253;62106;-48
2023/02/05 08:49:16;;;;;;;3.50;2.20;;;;;;;;;;105289;1253;60407;-45
2023/02/05 08:51:44;;;;;;;3.70;2.40;;;;;;;;;;105451;1251;61660;-43
2023/02/05 08:54:13;;;;;;;3.60;2.40;;;;;;;;;;105385;1256;60406;-47
2023/02/05 08:56:43;;;;;;;4.80;2.10;;;;;;;;;;105264;1251;60387;-46
2023/02/05 08:59:11;;;;;;;3.10;1.90;;;;;;;;;;105378;1256;62461;-45
2023/02/05 09:01:40;;;;;;;3.60;1.80;;;;;;;;;;105408;1256;60450;-46
2023/02/05 09:04:11;;;;;;;2.90;1.50;;;;;;;;;;105329;1251;60686;-47
2023/02/05 09:06:39;;;;;;;3.90;1.80;;;;;;;;;;105455;1256;60416;-49
2023/02/05 09:09:07;;;;;;;4.30;2.40;;;;;;;;;;105375;1251;60517;-47
2023/02/05 09:11:36;;;;;;;5.80;2.30;;;;;;;;;;105493;1254;61901;-43
2023/02/05 09:14:04;;;;;;;5.10;2.10;;;;;;;;;;105648;1255;60429;-46
2023/02/05 09:16:33;;;;;;;3.50;2.10;;;;;;;;;;109191;1250;60736;-45
2023/02/05 09:19:01;;;;;;;3.20;1.70;;;;;;;;;;106885;1253;60539;-45
2023/02/05 09:21:29;;;;;;;3.60;1.80;;;;;;;;;;105305;1256;60440;-42
2023/02/05 09:23:57;;;;;;;2.30;1.70;;;;;;;;;;105359;1251;61034;-46
2023/02/05 09:26:26;;;;;;;3.20;1.70;;;;;;;;;;105353;1253;60424;-47
2023/02/05 09:28:54;;;;;;;5.40;3.00;;;;;;;;;;105351;1253;61006;-46
2023/02/05 09:31:22;;;;;;;3.80;2.60;;;;;;;;;;105438;1256;60533;-50
2023/02/05 09:33:50;;;;;;;3.80;2.50;;;;;;;;;;105894;1253;60608;-46
2023/02/05 09:36:19;;;;;;;4.20;1.90;;;;;;;;;;105614;1251;61838;-47
2023/02/05 09:38:47;;;;;;;3.50;1.90;;;;;;;;;;105227;1251;60438;-48
2023/02/05 09:41:22;;;;;;;2.80;1.80;;;;;;;;;;105537;1256;60958;-47
2023/02/05 09:43:52;;;;;;;2.50;1.50;;;;;;;;;;105372;1255;60370;-44
2023/02/05 09:46:23;;;;;;;3.60;2.00;;;;;;;;;;105148;1254;60738;-46
2023/02/05 09:48:56;;;;;;;2.80;2.30;;;;;;;;;;105333;1251;62398;-45
2023/02/05 09:51:29;;;;;;;3.30;2.40;;;;;;;;;;105291;1253;60628;-45
2023/02/05 09:54:01;;;;;;;3.80;1.90;;;;;;;;;;105114;1251;62503;-46
2023/02/05 09:56:29;;;;;;;1.80;1.50;;;;;;;;;;105238;1255;60468;-46
2023/02/05 09:58:57;;;;;;;3.20;2.10;;;;;;;;;;105417;1254;60512;-42
2023/02/05 10:01:40;;;;;;;3.20;1.60;;;;;;;;;;105156;1250;60936;-45
2023/02/05 10:04:08;;;;;;;2.80;1.50;;;;;;;;;;105357;1255;60303;-49
2023/02/05 10:06:39;;;;;;;6.30;2.60;;;;;;;;;;105149;1251;60588;-45
2023/02/05 10:09:07;;;;;;;4.70;2.20;;;;;;;;;;105363;1252;60463;-45
2023/02/05 10:11:35;;;;;;;3.00;1.40;;;;;;;;;;105357;1250;62556;-46
2023/02/05 10:14:16;;;;;;;2.00;1.20;;;;;;;;;;105392;1251;61810;-44
2023/02/05 10:16:50;;;;;;;2.50;1.40;;;;;;;;;;105235;1256;60377;-46
2023/02/05 10:19:37;;;;;;;6.00;2.30;;;;;;;;;;105053;1253;61040;-47
2023/02/05 10:22:10;;;;;;;2.90;1.60;;;;;;;;;;105224;1256;60413;-46
2023/02/05 10:24:41;;;;;;;2.80;1.40;;;;;;;;;;105347;1255;60428;-42
2023/02/05 10:27:11;;;;;;;1.90;1.10;;;;;;;;;;105312;1253;62648;-44
2023/02/05 10:29:39;;;;;;;2.30;1.50;;;;;;;;;;105218;1251;60476;-44
2023/02/05 10:32:07;;;;;;;2.60;1.50;;;;;;;;;;105216;1251;60763;-45
2023/02/05 10:34:35;;;;;;;1.90;1.30;;;;;;;;;;105365;1254;60447;-49
2023/02/05 10:37:05;;;;;;;3.00;1.60;;;;;;;;;;105203;1251;60374;-47
2023/02/05 10:39:37;;;;;;;2.30;1.30;;;;;;;;;;105338;1251;61271;-46
2023/02/05 10:42:10;;;;;;;3.80;1.60;;;;;;;;;;105039;1256;60425;-47
2023/02/05 10:44:45;;;;;;;3.10;1.70;;;;;;;;;;105051;1251;60700;-48
2023/02/05 10:47:13;;;;;;;;;;;;;;;;;;105236;1251;60549;-49
2023/02/05 10:49:55;;;;;;;3.00;1.30;;;;;;;;;;105267;1251;60543;-47
2023/02/05 10:52:22;;;;;;;1.90;1.20;;;;;;;;;;105517;1253;62178;-42
2023/02/05 10:54:50;;;;;;;3.70;1.90;;;;;;;;;;105173;1254;60403;-44
2023/02/05 10:57:20;;;;;;;2.00;1.30;;;;;;;;;;106304;1256;60745;-46
2023/02/05 10:59:55;;;;;;;2.60;1.30;;;;;;;;;;105322;1251;60520;-49
2023/02/05 11:02:25;;;;;;;2.00;1.50;;;;;;;;;;105737;1251;60549;-45
2023/02/05 11:04:54;;;;;;;1.80;1.10;;;;;;;;;;105400;1251;62132;-45
2023/02/05 11:07:24;;;;;;;1.70;1.10;;;;;;;;;;105639;1253;60523;-45
2023/02/05 11:09:52;;;;;;;2.10;1.20;;;;;;;;;;105232;1251;61014;-46
2023/02/05 11:12:28;;;;;;;2.70;1.60;;;;;;;;;;105289;1256;60693;-45
2023/02/05 11:14:59;;;;;;;1.90;1.10;;;;;;;;;;105479;1255;60431;-44
2023/02/05 11:17:37;;;;;;;1.90;1.20;;;;;;;;;;105414;1251;62200;-45
2023/02/05 11:20:07;;;;;;;5.40;1.30;;;;;;;;;;105340;1254;60402;-45
2023/02/05 11:22:39;;;;;;;2.00;1.40;;;;;;;;;;105126;1251;60489;-47
2023/02/05 11:25:17;;;;;;;3.50;1.40;;;;;;;;;;105564;1253;60501;-48
2023/02/05 11:27:57;;;;;;;3.00;1.70;;;;;;;;;;105368;1256;60307;-48
2023/02/05 11:30:31;;;;;;;4.40;1.50;;;;;;;;;;105381;1253;62098;-43
2023/02/05 11:33:26;;;;;;;2.80;1.80;;;;;;;;;;105447;1254;60289;-47
2023/02/05 11:35:55;;;;;;;2.90;1.80;;;;;;;;;;105450;1255;60973;-45
2023/02/05 11:38:28;;;;;;;2.20;1.40;;;;;;;;;;105897;1251;60698;-49
2023/02/05 11:40:58;;;;;;;1.80;1.20;;;;;;;;;;105819;1255;58994;-45
2023/02/05 11:43:33;;;;;;;1.70;1.10;;;;;;;;;;105390;1254;62400;-46
2023/02/05 11:46:02;;;;;;;1.90;1.60;;;;;;;;;;105899;1253;60534;-46
2023/02/05 11:48:50;;;;;;;2.00;1.50;;;;;;;;;;105404;1253;61003;-50
2023/02/05 11:51:26;;;;;;;2.40;1.80;;;;;;;;;;105385;1255;60514;-45
2023/02/05 11:53:55;;;;;;;3.20;2.00;;;;;;;;;;105430;1254;60514;-48
2023/02/05 11:56:23;;;;;;;2.40;1.70;;;;;;;;;;105215;1251;62333;-45
2023/02/05 11:59:02;;;;;;;2.60;1.40;;;;;;;;;;105285;1254;60460;-44
2023/02/05 12:01:33;;;;;;;2.70;1.60;;;;;;;;;;105275;1251;60533;-44
2023/02/05 12:04:01;;;;;;;3.30;1.90;;;;;;;;;;105519;1251;60425;-49
2023/02/05 12:06:34;;;;;;;1.90;1.50;;;;;;;;;;105365;1256;60447;-43
2023/02/05 12:09:02;;;;;;;2.70;1.70;;;;;;;;;;105162;1251;61996;-45
2023/02/05 12:11:30;;;;;;;3.00;1.30;;;;;;;;;;105190;1255;61284;-49
2023/02/05 12:14:02;;;;;;;22.90;17.50;;;;;;;;;;105321;1254;61004;-47
2023/02/05 12:16:33;;;;;;;6.20;4.30;;;;;;;;;;105166;1254;60565;-47
2023/02/05 12:19:06;;;;;;;3.80;3.50;;;;;;;;;;105281;1251;60466;-48
2023/02/05 12:21:41;;;;;;;4.50;3.00;;;;;;;;;;105889;1251;62044;-48
2023/02/05 12:24:16;;;;;;;3.90;2.00;;;;;;;;;;105587;1256;60374;-48
2023/02/05 12:26:44;;;;;;;3.30;2.50;;;;;;;;;;105350;1251;60424;-49
2023/02/05 12:29:12;;;;;;;2.90;1.80;;;;;;;;;;105288;1256;60319;-47
2023/02/05 12:32:03;;;;;;;2.60;2.10;;;;;;;;;;105302;1256;60411;-47
2023/02/05 12:34:34;;;;;;;1.90;1.20;;;;;;;;;;104870;1251;61863;-46
2023/02/05 12:37:06;;;;;;;2.90;2.10;;;;;;;;;;105268;1255;60389;-46
2023/02/05 12:39:46;;;;;;;2.60;2.00;;;;;;;;;;105563;1256;60435;-49
2023/02/05 12:42:32;;;;;;;2.40;2.20;;;;;;;;;;105556;1256;60511;-45
2023/02/05 12:45:06;;;;;;;3.30;1.90;;;;;;;;;;105430;1251;60364;-46
2023/02/05 12:47:43;;;;;;;2.70;1.90;;;;;;;;;;105152;1251;61185;-47
2023/02/05 12:50:11;;;;;;;2.00;1.80;;;;;;;;;;105406;1254;60437;-44
2023/02/05 12:52:45;;;;;;;2.20;1.60;;;;;;;;;;105484;1251;60776;-49
2023/02/05 12:55:49;;;;;;;2.90;2.20;;;;;;;;;;105281;1255;60435;-46
2023/02/05 12:58:18;;;;;;;1.90;1.50;;;;;;;;;;104821;1257;60716;-48
2023/02/05 13:00:50;;;;;;;3.10;1.50;;;;;;;;;;105170;1252;62078;-51
2023/02/05 13:03:37;;;;;;;2.60;1.90;;;;;;;;;;105350;1252;60430;-44
2023/02/05 13:06:18;;;;;;;3.60;2.40;;;;;;;;;;105062;1253;61878;-46
2023/02/05 13:08:46;;;;;;;3.50;2.20;;;;;;;;;;105143;1251;60578;-45
2023/02/05 13:11:24;;;;;;;3.10;1.90;;;;;;;;;;105056;1251;60589;-50
2023/02/05 13:14:01;;;;;;;6.40;3.10;;;;;;;;;;105257;1258;62475;-45
2023/02/05 13:16:56;;;;;;;4.60;3.20;;;;;;;;;;105298;1251;61090;-44
2023/02/05 13:19:38;;;;;;;4.80;2.20;;;;;;;;;;105103;1251;61101;-45
2023/02/05 13:30:59;;;;;;;3.10;2.10;;;;;;;;;;105161;1254;60434;-47
2023/02/05 13:33:27;;;;;;;4.90;2.80;;;;;;;;;;104863;1256;60766;-48
2023/02/05 13:36:13;;;;;;;5.40;3.30;;;;;;;;;;105217;1252;60512;-45
2023/02/05 13:38:51;;;;;;;3.50;2.20;;;;;;;;;;105234;1251;60534;-45
2023/02/05 13:41:31;;;;;;;8.70;5.40;;;;;;;;;;104837;1251;62213;-48
2023/02/05 13:44:18;;;;;;;7.00;4.70;;;;;;;;;;109245;1251;58483;-47
2023/02/05 13:46:46;;;;;;;6.60;3.50;;;;;;;;;;105406;1256;60434;-46
2023/02/05 13:49:19;;;;;;;3.90;2.60;;;;;;;;;;105155;1256;60338;-46
2023/02/05 13:52:05;;;;;;;6.30;3.90;;;;;;;;;;105038;1251;60435;-48
2023/02/05 13:54:37;;;;;;;16.50;8.70;;;;;;;;;;104870;1255;62210;-48
2023/02/05 13:58:33;;;;;;;9.40;5.70;;;;;;;;;;103822;1290;601168;-78
2023/02/05 14:01:02;;;;;;;10.70;4.60;;;;;;;;;;105606;1266;58974;-79
2023/02/05 14:03:34;;;;;;;5.10;3.70;;;;;;;;;;106221;1266;58934;-79
2023/02/05 14:06:12;;;;;;;4.80;3.90;;;;;;;;;;105580;1267;60298;-79
2023/02/05 14:08:40;;;;;;;5.60;3.50;;;;;;;;;;105586;1270;59080;-78
2023/02/05 14:11:09;;;;;;;6.70;5.00;;;;;;;;;;105473;1264;205425;-78
2023/02/05 14:13:37;;;;;;;6.20;3.80;;;;;;;;;;106478;1264;61078;-80
2023/02/05 14:16:25;;;;;;;3.90;2.80;;;;;;;;;;106590;1265;59174;-79
2023/02/05 14:18:59;;;;;;;7.20;4.50;;;;;;;;;;106315;1264;60447;-79
2023/02/05 14:21:30;;;;;;;7.90;3.60;;;;;;;;;;105843;1265;58992;-79
2023/02/05 14:23:58;;;;;;;3.50;2.70;;;;;;;;;;106011;1264;60838;-79
2023/02/05 14:26:46;;;;;;;8.00;4.40;;;;;;;;;;105811;1265;59670;-78
2023/02/05 14:29:34;;;;;;;5.90;3.80;;;;;;;;;;105614;1271;59671;-80
2023/02/05 14:32:01;;;;;;;4.90;3.00;;;;;;;;;;105818;1263;60192;-79
2023/02/05 14:34:32;;;;;;;4.90;2.90;;;;;;;;;;105847;1264;59576;-78
2023/02/05 14:37:01;;;;;;;5.10;3.20;;;;;;;;;;105791;1268;59604;-78
2023/02/05 14:39:32;;;;;;;3.10;2.20;;;;;;;;;;105735;1263;59657;-79
2023/02/05 14:42:04;;;;;;;11.40;6.60;;;;;;;;;;106705;1268;59391;-80
2023/02/05 14:44:32;;;;;;;10.00;6.20;;;;;;;;;;106815;1256;60129;-80
2023/02/05 14:47:02;;;;;;;6.70;4.20;;;;;;;;;;106962;1258;59558;-80
2023/02/05 14:49:35;;;;;;;3.00;2.40;;;;;;;;;;106627;1262;60937;-80
2023/02/05 14:52:06;;;;;;;5.30;3.70;;;;;;;;;;107103;1258;59639;-79
2023/02/05 14:54:44;;;;;;;8.70;5.00;;;;;;;;;;107202;1257;59637;-79
2023/02/05 14:57:13;;;;;;;6.70;4.10;;;;;;;;;;106881;1257;61262;-78
2023/02/05 14:59:49;;;;;;;6.00;3.50;;;;;;;;;;106502;1258;59711;-79
2023/02/05 15:02:36;;;;;;;3.70;3.00;;;;;;;;;;106214;1257;59577;-80
2023/02/05 15:05:09;;;;;;;5.90;2.80;;;;;;;;;;106291;1257;59482;-79
2023/02/05 15:07:37;;;;;;;4.00;2.10;;;;;;;;;;106056;1260;59734;-80
2023/02/05 15:10:05;;;;;;;5.10;2.40;;;;;;;;;;106676;1257;61122;-79